Fukui, Japan

2:15 PM JST on August 21, 2014 (GMT +0900)
Komatsu | Change Station
CLOSE
Current Station
Airport
Location: Komatsu AB,
Elevation: 30 ft
Nearby Weather Stations

Elev 30 ft 36.39 °N, 136.41 °E | Updated 15 minutes ago

Mostly Cloudy
Mostly Cloudy
88 °F
Feels Like 96 °F
N
17
Wind Variable Wind from WSW

Today
High -- | Low -- °F
--% Chance of Precip.
Yesterday
High -- | Low -- °F
Precip. -- in
5:17 AM 6:38 PM
Waning Crescent, 16% visible
Pressure 29.86 in
Visibility 6.2 miles
Clouds Few 3000 ft
Mostly Cloudy 15000 ft
Mostly Cloudy 18000 ft
Heat Index 96 °F
Dew Point 73 °F
Humidity 62%
Rainfall 0.00 in
Snow Depth Not available.
UV 4 out of 12
Pollen Not available.
Air Quality Not available.
Flu Activity Not available.
METAR RJNK 210500Z 25015KT 9999 FEW030 BKN150 BKN180 31/23 Q1011

More Conditions Fewer Conditions

Pressure 29.86 in
Visibility 6.2 miles
Clouds Few 3000 ft
Mostly Cloudy 15000 ft
Mostly Cloudy 18000 ft
Heat Index 96 °F
Dew Point 73 °F
Humidity 62%
Rainfall 0.00 in
Snow Depth Not available.
UV 4 out of 12
Pollen Not available.
Air Quality Not available.
Flu Activity Not available.
METAR RJNK 210500Z 25015KT 9999 FEW030 BKN150 BKN180 31/23 Q1011

More Conditions Fewer Conditions

10-Day Weather Forecast

Almanac

Astronomy

Aug. 21, 2014 Rise Set
Actual Time 5:17 AM JST 6:38 PM JST
Civil Twilight 4:50 AM JST 7:05 PM JST
Nautical Twilight 4:18 AM JST 7:37 PM JST
Astronomical Twilight 3:44 AM JST 8:11 PM JST
Moon 1:19 AM JST 3:37 PM JST
Length of Visible Light 14h 14m
Length of Day
13h 21m
Tomorrow will be 2m 6s shorter.
Waning Crescent, 16% of the Moon is Illuminated
Today
Waning Crescent
Aug 25
New
Sep 2
First Quarter
Sep 8
Full
Sep 15
Last Quarter

Yesterday's Extremes

Country Highs Country Lows

Community

WunderPhotos

Upload Photos

1,745,858 photos uploaded!

Nearby

Snow Depth

Not available.

Earthquake Activity

City Distance Mag. Time & Date
No recent earthquake activity has been reported nearby.
Minimum magnitude displayed is 2.5.

Coastal Water Temperatures

Place Temperature
No Stations Reporting

Nearby Weather Stations